sensor_id;sensor_type;location;lat;lon;timestamp;temperature;humidity
18753;DHT22;9505;50.882;5.350;2022-11-03T00:00:10;12.30;99.90
18753;DHT22;9505;50.882;5.350;2022-11-03T00:02:35;12.30;99.90
18753;DHT22;9505;50.882;5.350;2022-11-03T00:05:01;12.30;99.90
18753;DHT22;9505;50.882;5.350;2022-11-03T00:07:46;12.30;99.90
18753;DHT22;9505;50.882;5.350;2022-11-03T00:10:12;12.30;99.90
18753;DHT22;9505;50.882;5.350;2022-11-03T00:12:38;12.20;99.90
18753;DHT22;9505;50.882;5.350;2022-11-03T00:15:04;12.30;99.90
18753;DHT22;9505;50.882;5.350;2022-11-03T00:17:29;12.30;99.90
18753;DHT22;9505;50.882;5.350;2022-11-03T00:19:55;12.30;99.90
18753;DHT22;9505;50.882;5.350;2022-11-03T00:22:20;12.30;99.90
18753;DHT22;9505;50.882;5.350;2022-11-03T00:24:46;12.40;99.90
18753;DHT22;9505;50.882;5.350;2022-11-03T00:27:11;12.30;99.90
18753;DHT22;9505;50.882;5.350;2022-11-03T00:29:37;12.30;99.90
18753;DHT22;9505;50.882;5.350;2022-11-03T00:32:03;12.30;99.90
18753;DHT22;9505;50.882;5.350;2022-11-03T00:34:28;12.20;99.90
18753;DHT22;9505;50.882;5.350;2022-11-03T00:36:54;12.20;99.90
18753;DHT22;9505;50.882;5.350;2022-11-03T00:39:19;12.10;99.90
18753;DHT22;9505;50.882;5.350;2022-11-03T00:41:45;12.20;99.90
18753;DHT22;9505;50.882;5.350;2022-11-03T00:44:11;12.20;99.90
18753;DHT22;9505;50.882;5.350;2022-11-03T00:46:37;12.30;99.90
18753;DHT22;9505;50.882;5.350;2022-11-03T00:49:04;12.30;99.90
18753;DHT22;9505;50.882;5.350;2022-11-03T00:51:29;12.30;99.90
18753;DHT22;9505;50.882;5.350;2022-11-03T00:54:03;12.30;99.90
18753;DHT22;9505;50.882;5.350;2022-11-03T00:56:31;12.40;99.90
18753;DHT22;9505;50.882;5.350;2022-11-03T00:58:58;12.40;99.90
18753;DHT22;9505;50.882;5.350;2022-11-03T01:01:32;12.30;99.90
18753;DHT22;9505;50.882;5.350;2022-11-03T01:04:01;12.30;99.90
18753;DHT22;9505;50.882;5.350;2022-11-03T01:06:49;12.30;99.90
18753;DHT22;9505;50.882;5.350;2022-11-03T01:09:19;12.40;99.90
18753;DHT22;9505;50.882;5.350;2022-11-03T01:12:08;12.40;99.90
18753;DHT22;9505;50.882;5.350;2022-11-03T01:17:18;12.40;99.90
18753;DHT22;9505;50.882;5.350;2022-11-03T01:19:44;12.40;99.90
18753;DHT22;9505;50.882;5.350;2022-11-03T01:22:11;12.40;99.90
18753;DHT22;9505;50.882;5.350;2022-11-03T01:24:38;12.40;99.90
18753;DHT22;9505;50.882;5.350;2022-11-03T01:27:05;12.40;99.90
18753;DHT22;9505;50.882;5.350;2022-11-03T01:29:31;12.40;99.90
18753;DHT22;9505;50.882;5.350;2022-11-03T01:31:57;12.40;99.90
18753;DHT22;9505;50.882;5.350;2022-11-03T01:34:22;12.40;99.90
18753;DHT22;9505;50.882;5.350;2022-11-03T01:36:48;12.40;99.90
18753;DHT22;9505;50.882;5.350;2022-11-03T01:39:17;12.50;99.90
18753;DHT22;9505;50.882;5.350;2022-11-03T01:41:44;12.40;99.90
18753;DHT22;9505;50.882;5.350;2022-11-03T01:46:58;12.50;99.90
18753;DHT22;9505;50.882;5.350;2022-11-03T01:49:35;12.50;99.90
18753;DHT22;9505;50.882;5.350;2022-11-03T01:52:10;12.50;99.90
18753;DHT22;9505;50.882;5.350;2022-11-03T01:54:40;12.50;99.90
18753;DHT22;9505;50.882;5.350;2022-11-03T01:57:11;12.50;99.90
18753;DHT22;9505;50.882;5.350;2022-11-03T01:59:39;12.50;99.90
18753;DHT22;9505;50.882;5.350;2022-11-03T02:02:05;12.50;99.90
18753;DHT22;9505;50.882;5.350;2022-11-03T02:04:32;12.50;99.90
18753;DHT22;9505;50.882;5.350;2022-11-03T02:09:50;12.50;99.90
18753;DHT22;9505;50.882;5.350;2022-11-03T02:12:17;12.40;99.90
18753;DHT22;9505;50.882;5.350;2022-11-03T02:14:54;12.40;99.90
18753;DHT22;9505;50.882;5.350;2022-11-03T02:17:23;12.40;99.90
18753;DHT22;9505;50.882;5.350;2022-11-03T02:20:05;12.40;99.90
18753;DHT22;9505;50.882;5.350;2022-11-03T02:28:19;12.40;99.90
18753;DHT22;9505;50.882;5.350;2022-11-03T02:33:29;12.40;99.90
18753;DHT22;9505;50.882;5.350;2022-11-03T02:36:24;12.40;99.90
18753;DHT22;9505;50.882;5.350;2022-11-03T02:41:56;12.40;99.90
18753;DHT22;9505;50.882;5.350;2022-11-03T02:44:24;12.40;99.90
18753;DHT22;9505;50.882;5.350;2022-11-03T02:46:56;12.50;99.90
18753;DHT22;9505;50.882;5.350;2022-11-03T02:49:22;12.60;99.90
18753;DHT22;9505;50.882;5.350;2022-11-03T02:51:56;12.70;99.90
18753;DHT22;9505;50.882;5.350;2022-11-03T02:54:25;12.80;99.90
18753;DHT22;9505;50.882;5.350;2022-11-03T02:57:13;12.80;99.90
18753;DHT22;9505;50.882;5.350;2022-11-03T02:59:45;12.90;99.90
18753;DHT22;9505;50.882;5.350;2022-11-03T03:02:23;12.90;99.90
18753;DHT22;9505;50.882;5.350;2022-11-03T03:04:54;13.00;99.90
18753;DHT22;9505;50.882;5.350;2022-11-03T03:07:27;13.00;99.90
18753;DHT22;9505;50.882;5.350;2022-11-03T03:12:30;13.10;99.90
18753;DHT22;9505;50.882;5.350;2022-11-03T03:14:57;13.10;99.90
18753;DHT22;9505;50.882;5.350;2022-11-03T03:17:31;13.00;99.90
18753;DHT22;9505;50.882;5.350;2022-11-03T03:20:10;13.00;99.90
18753;DHT22;9505;50.882;5.350;2022-11-03T03:22:42;13.00;99.90
18753;DHT22;9505;50.882;5.350;2022-11-03T03:25:24;13.00;99.90
18753;DHT22;9505;50.882;5.350;2022-11-03T03:27:54;13.00;99.90
18753;DHT22;9505;50.882;5.350;2022-11-03T03:30:21;13.00;99.90
18753;DHT22;9505;50.882;5.350;2022-11-03T03:32:49;13.00;99.90
18753;DHT22;9505;50.882;5.350;2022-11-03T03:35:21;13.00;99.90
18753;DHT22;9505;50.882;5.350;2022-11-03T03:37:52;13.00;99.90
18753;DHT22;9505;50.882;5.350;2022-11-03T03:40:24;13.00;99.90
18753;DHT22;9505;50.882;5.350;2022-11-03T03:42:53;13.00;99.90
18753;DHT22;9505;50.882;5.350;2022-11-03T03:45:19;13.00;99.90
18753;DHT22;9505;50.882;5.350;2022-11-03T03:47:45;13.00;99.90
18753;DHT22;9505;50.882;5.350;2022-11-03T03:50:11;13.00;99.90
18753;DHT22;9505;50.882;5.350;2022-11-03T03:52:37;13.10;99.90
18753;DHT22;9505;50.882;5.350;2022-11-03T03:55:03;13.10;99.90
18753;DHT22;9505;50.882;5.350;2022-11-03T03:57:32;13.10;99.90
18753;DHT22;9505;50.882;5.350;2022-11-03T03:59:57;13.10;99.90
18753;DHT22;9505;50.882;5.350;2022-11-03T04:02:23;13.10;99.90
18753;DHT22;9505;50.882;5.350;2022-11-03T04:04:48;13.10;99.90
18753;DHT22;9505;50.882;5.350;2022-11-03T04:07:14;13.10;99.90
18753;DHT22;9505;50.882;5.350;2022-11-03T04:09:58;13.10;99.90
18753;DHT22;9505;50.882;5.350;2022-11-03T04:12:24;13.10;99.90
18753;DHT22;9505;50.882;5.350;2022-11-03T04:15:12;13.00;99.90
18753;DHT22;9505;50.882;5.350;2022-11-03T04:17:56;13.00;99.90
18753;DHT22;9505;50.882;5.350;2022-11-03T04:20:41;13.10;99.90
18753;DHT22;9505;50.882;5.350;2022-11-03T04:23:25;13.10;99.90
18753;DHT22;9505;50.882;5.350;2022-11-03T04:25:54;13.10;99.90
18753;DHT22;9505;50.882;5.350;2022-11-03T04:28:20;13.10;99.90
18753;DHT22;9505;50.882;5.350;2022-11-03T04:30:46;13.10;99.90
18753;DHT22;9505;50.882;5.350;2022-11-03T04:33:16;13.10;99.90
18753;DHT22;9505;50.882;5.350;2022-11-03T04:35:43;13.00;99.90
18753;DHT22;9505;50.882;5.350;2022-11-03T04:38:20;13.00;99.90
18753;DHT22;9505;50.882;5.350;2022-11-03T04:40:54;13.00;99.90
18753;DHT22;9505;50.882;5.350;2022-11-03T04:43:22;13.00;99.90
18753;DHT22;9505;50.882;5.350;2022-11-03T04:45:48;13.00;99.90
18753;DHT22;9505;50.882;5.350;2022-11-03T04:48:18;13.00;99.90
18753;DHT22;9505;50.882;5.350;2022-11-03T04:50:46;13.00;99.90
18753;DHT22;9505;50.882;5.350;2022-11-03T04:53:16;13.00;99.90
18753;DHT22;9505;50.882;5.350;2022-11-03T04:55:44;12.90;99.90
18753;DHT22;9505;50.882;5.350;2022-11-03T04:58:25;12.90;99.90
18753;DHT22;9505;50.882;5.350;2022-11-03T05:00:55;12.90;99.90
18753;DHT22;9505;50.882;5.350;2022-11-03T05:05:52;12.80;99.90
18753;DHT22;9505;50.882;5.350;2022-11-03T05:08:21;12.80;99.90
18753;DHT22;9505;50.882;5.350;2022-11-03T05:10:48;12.80;99.90
18753;DHT22;9505;50.882;5.350;2022-11-03T05:13:27;12.80;99.90
18753;DHT22;9505;50.882;5.350;2022-11-03T05:16:04;12.80;99.90
18753;DHT22;9505;50.882;5.350;2022-11-03T05:18:32;12.80;99.90
18753;DHT22;9505;50.882;5.350;2022-11-03T05:23:36;13.00;99.90
18753;DHT22;9505;50.882;5.350;2022-11-03T05:26:04;13.00;99.90
18753;DHT22;9505;50.882;5.350;2022-11-03T05:28:34;13.00;99.90
18753;DHT22;9505;50.882;5.350;2022-11-03T05:31:25;13.00;99.90
18753;DHT22;9505;50.882;5.350;2022-11-03T05:33:53;12.90;99.90
18753;DHT22;9505;50.882;5.350;2022-11-03T05:36:23;12.90;99.90
18753;DHT22;9505;50.882;5.350;2022-11-03T05:38:53;12.90;99.90
18753;DHT22;9505;50.882;5.350;2022-11-03T05:41:22;12.90;99.90
18753;DHT22;9505;50.882;5.350;2022-11-03T05:43:58;12.90;99.90
18753;DHT22;9505;50.882;5.350;2022-11-03T05:46:32;12.90;99.90
18753;DHT22;9505;50.882;5.350;2022-11-03T05:49:01;12.90;99.90
18753;DHT22;9505;50.882;5.350;2022-11-03T05:51:33;12.90;99.90
18753;DHT22;9505;50.882;5.350;2022-11-03T05:54:01;12.90;99.90
18753;DHT22;9505;50.882;5.350;2022-11-03T05:56:29;12.90;99.90
18753;DHT22;9505;50.882;5.350;2022-11-03T05:58:56;12.90;99.90
18753;DHT22;9505;50.882;5.350;2022-11-03T06:01:30;12.80;99.90
18753;DHT22;9505;50.882;5.350;2022-11-03T06:03:59;12.80;99.90
18753;DHT22;9505;50.882;5.350;2022-11-03T06:06:34;12.90;99.90
18753;DHT22;9505;50.882;5.350;2022-11-03T06:09:13;12.90;99.90
18753;DHT22;9505;50.882;5.350;2022-11-03T06:11:41;12.80;99.90
18753;DHT22;9505;50.882;5.350;2022-11-03T06:14:33;12.80;99.90
18753;DHT22;9505;50.882;5.350;2022-11-03T06:17:10;12.90;99.90
18753;DHT22;9505;50.882;5.350;2022-11-03T06:19:43;12.90;99.90
18753;DHT22;9505;50.882;5.350;2022-11-03T06:24:46;12.90;99.90
18753;DHT22;9505;50.882;5.350;2022-11-03T06:27:17;12.90;99.90
18753;DHT22;9505;50.882;5.350;2022-11-03T06:29:57;12.90;99.90
18753;DHT22;9505;50.882;5.350;2022-11-03T06:32:23;13.00;99.90
18753;DHT22;9505;50.882;5.350;2022-11-03T06:34:51;12.90;99.90
18753;DHT22;9505;50.882;5.350;2022-11-03T06:37:26;12.90;99.90
18753;DHT22;9505;50.882;5.350;2022-11-03T06:39:59;12.90;99.90
18753;DHT22;9505;50.882;5.350;2022-11-03T06:42:25;12.90;99.90
18753;DHT22;9505;50.882;5.350;2022-11-03T06:44:50;12.90;99.90
18753;DHT22;9505;50.882;5.350;2022-11-03T06:47:27;12.90;99.90
18753;DHT22;9505;50.882;5.350;2022-11-03T06:49:55;13.00;99.90
18753;DHT22;9505;50.882;5.350;2022-11-03T06:52:30;13.00;99.90
18753;DHT22;9505;50.882;5.350;2022-11-03T06:57:25;13.10;99.90
18753;DHT22;9505;50.882;5.350;2022-11-03T06:59:51;13.10;99.90
18753;DHT22;9505;50.882;5.350;2022-11-03T07:02:58;13.10;99.90
18753;DHT22;9505;50.882;5.350;2022-11-03T07:05:27;13.10;99.90
18753;DHT22;9505;50.882;5.350;2022-11-03T07:07:55;13.10;99.90
18753;DHT22;9505;50.882;5.350;2022-11-03T07:10:27;13.20;99.90
18753;DHT22;9505;50.882;5.350;2022-11-03T07:12:54;13.20;99.90
18753;DHT22;9505;50.882;5.350;2022-11-03T07:15:32;13.10;99.90
18753;DHT22;9505;50.882;5.350;2022-11-03T07:18:00;13.20;99.90
18753;DHT22;9505;50.882;5.350;2022-11-03T07:20:27;13.20;99.90
18753;DHT22;9505;50.882;5.350;2022-11-03T07:22:53;13.20;99.90
18753;DHT22;9505;50.882;5.350;2022-11-03T07:25:21;13.20;99.90
18753;DHT22;9505;50.882;5.350;2022-11-03T07:27:51;13.20;99.90
18753;DHT22;9505;50.882;5.350;2022-11-03T07:30:28;13.20;99.90
18753;DHT22;9505;50.882;5.350;2022-11-03T07:32:59;13.30;99.90
18753;DHT22;9505;50.882;5.350;2022-11-03T07:35:29;13.40;99.90
18753;DHT22;9505;50.882;5.350;2022-11-03T07:37:56;13.40;99.90
18753;DHT22;9505;50.882;5.350;2022-11-03T07:40:25;13.40;99.90
18753;DHT22;9505;50.882;5.350;2022-11-03T07:42:55;13.40;99.90
18753;DHT22;9505;50.882;5.350;2022-11-03T07:45:48;13.50;99.90
18753;DHT22;9505;50.882;5.350;2022-11-03T07:50:51;13.40;99.90
18753;DHT22;9505;50.882;5.350;2022-11-03T07:53:44;13.40;99.90
18753;DHT22;9505;50.882;5.350;2022-11-03T07:56:20;13.50;99.90
18753;DHT22;9505;50.882;5.350;2022-11-03T07:58:52;13.50;99.90
18753;DHT22;9505;50.882;5.350;2022-11-03T08:03:51;13.60;99.90
18753;DHT22;9505;50.882;5.350;2022-11-03T08:06:17;13.60;99.90
18753;DHT22;9505;50.882;5.350;2022-11-03T08:08:42;13.60;99.90
18753;DHT22;9505;50.882;5.350;2022-11-03T08:11:08;13.60;99.90
18753;DHT22;9505;50.882;5.350;2022-11-03T08:13:34;13.60;99.90
18753;DHT22;9505;50.882;5.350;2022-11-03T08:16:00;13.70;99.90
18753;DHT22;9505;50.882;5.350;2022-11-03T08:18:25;13.70;99.90
18753;DHT22;9505;50.882;5.350;2022-11-03T08:20:51;13.80;99.90
18753;DHT22;9505;50.882;5.350;2022-11-03T08:23:16;13.80;99.90
18753;DHT22;9505;50.882;5.350;2022-11-03T08:25:43;13.80;99.90
18753;DHT22;9505;50.882;5.350;2022-11-03T08:28:08;13.80;99.90
18753;DHT22;9505;50.882;5.350;2022-11-03T08:30:34;13.80;99.90
18753;DHT22;9505;50.882;5.350;2022-11-03T08:33:00;13.90;99.90
18753;DHT22;9505;50.882;5.350;2022-11-03T08:35:25;13.90;99.90
18753;DHT22;9505;50.882;5.350;2022-11-03T08:37:51;13.90;99.90
18753;DHT22;9505;50.882;5.350;2022-11-03T08:40:17;13.90;99.90
18753;DHT22;9505;50.882;5.350;2022-11-03T08:42:43;13.90;99.90
18753;DHT22;9505;50.882;5.350;2022-11-03T08:45:09;14.00;99.90
18753;DHT22;9505;50.882;5.350;2022-11-03T08:47:35;14.10;99.90
18753;DHT22;9505;50.882;5.350;2022-11-03T08:50:01;14.10;99.90
18753;DHT22;9505;50.882;5.350;2022-11-03T08:52:27;14.10;99.90
18753;DHT22;9505;50.882;5.350;2022-11-03T08:54:53;14.00;99.90
18753;DHT22;9505;50.882;5.350;2022-11-03T08:57:19;14.00;99.90
18753;DHT22;9505;50.882;5.350;2022-11-03T08:59:44;14.00;99.90
18753;DHT22;9505;50.882;5.350;2022-11-03T09:02:10;14.00;99.90
18753;DHT22;9505;50.882;5.350;2022-11-03T09:04:35;14.00;99.90
18753;DHT22;9505;50.882;5.350;2022-11-03T09:07:01;14.00;99.90
18753;DHT22;9505;50.882;5.350;2022-11-03T09:09:26;14.00;99.90
18753;DHT22;9505;50.882;5.350;2022-11-03T09:11:52;14.10;99.90
18753;DHT22;9505;50.882;5.350;2022-11-03T09:14:18;14.00;99.90
18753;DHT22;9505;50.882;5.350;2022-11-03T09:16:43;14.10;99.90
18753;DHT22;9505;50.882;5.350;2022-11-03T09:19:09;14.10;99.90
18753;DHT22;9505;50.882;5.350;2022-11-03T09:21:35;14.20;99.90
18753;DHT22;9505;50.882;5.350;2022-11-03T09:24:00;14.20;99.90
18753;DHT22;9505;50.882;5.350;2022-11-03T09:26:26;14.30;99.90
18753;DHT22;9505;50.882;5.350;2022-11-03T09:28:52;14.20;99.90
18753;DHT22;9505;50.882;5.350;2022-11-03T09:31:18;14.30;99.90
18753;DHT22;9505;50.882;5.350;2022-11-03T09:33:44;14.30;99.90
18753;DHT22;9505;50.882;5.350;2022-11-03T09:36:10;14.20;99.90
18753;DHT22;9505;50.882;5.350;2022-11-03T09:38:35;14.10;99.90
18753;DHT22;9505;50.882;5.350;2022-11-03T09:41:02;14.10;99.90
18753;DHT22;9505;50.882;5.350;2022-11-03T09:43:30;14.20;99.90
18753;DHT22;9505;50.882;5.350;2022-11-03T09:45:57;14.10;99.90
18753;DHT22;9505;50.882;5.350;2022-11-03T09:48:23;14.20;99.90
18753;DHT22;9505;50.882;5.350;2022-11-03T09:50:52;14.20;99.90
18753;DHT22;9505;50.882;5.350;2022-11-03T09:53:19;14.20;99.90
18753;DHT22;9505;50.882;5.350;2022-11-03T09:55:45;14.20;99.90
18753;DHT22;9505;50.882;5.350;2022-11-03T09:58:15;14.10;99.90
18753;DHT22;9505;50.882;5.350;2022-11-03T10:00:41;14.10;99.90
18753;DHT22;9505;50.882;5.350;2022-11-03T10:03:15;14.10;99.90
18753;DHT22;9505;50.882;5.350;2022-11-03T10:05:43;14.20;99.90
18753;DHT22;9505;50.882;5.350;2022-11-03T10:08:29;14.20;99.90
18753;DHT22;9505;50.882;5.350;2022-11-03T10:10:56;14.20;99.90
18753;DHT22;9505;50.882;5.350;2022-11-03T10:15:51;14.20;99.90
18753;DHT22;9505;50.882;5.350;2022-11-03T10:18:17;14.20;99.90
18753;DHT22;9505;50.882;5.350;2022-11-03T10:20:43;14.20;99.90
18753;DHT22;9505;50.882;5.350;2022-11-03T10:23:09;14.20;99.90
18753;DHT22;9505;50.882;5.350;2022-11-03T10:28:23;14.30;99.90
18753;DHT22;9505;50.882;5.350;2022-11-03T10:30:59;14.40;99.90
18753;DHT22;9505;50.882;5.350;2022-11-03T10:33:30;14.50;99.90
18753;DHT22;9505;50.882;5.350;2022-11-03T10:35:57;14.60;99.90
18753;DHT22;9505;50.882;5.350;2022-11-03T10:40:52;15.00;99.90
18753;DHT22;9505;50.882;5.350;2022-11-03T10:43:18;15.10;99.90
18753;DHT22;9505;50.882;5.350;2022-11-03T10:45:44;15.20;99.90
18753;DHT22;9505;50.882;5.350;2022-11-03T10:48:10;15.20;99.90
18753;DHT22;9505;50.882;5.350;2022-11-03T10:50:38;15.40;99.90
18753;DHT22;9505;50.882;5.350;2022-11-03T10:53:04;15.50;99.90
18753;DHT22;9505;50.882;5.350;2022-11-03T10:55:30;15.40;99.90
18753;DHT22;9505;50.882;5.350;2022-11-03T10:57:57;15.30;99.90
18753;DHT22;9505;50.882;5.350;2022-11-03T11:00:23;15.30;99.90
18753;DHT22;9505;50.882;5.350;2022-11-03T11:02:49;15.30;99.90
18753;DHT22;9505;50.882;5.350;2022-11-03T11:05:22;15.20;99.90
18753;DHT22;9505;50.882;5.350;2022-11-03T11:07:49;15.30;99.90
18753;DHT22;9505;50.882;5.350;2022-11-03T11:10:29;15.40;99.90
18753;DHT22;9505;50.882;5.350;2022-11-03T11:13:05;15.50;99.90
18753;DHT22;9505;50.882;5.350;2022-11-03T11:15:40;15.60;99.90
18753;DHT22;9505;50.882;5.350;2022-11-03T11:18:06;15.60;99.90
18753;DHT22;9505;50.882;5.350;2022-11-03T11:20:39;15.70;99.90
18753;DHT22;9505;50.882;5.350;2022-11-03T11:28:42;15.50;99.90
18753;DHT22;9505;50.882;5.350;2022-11-03T11:31:38;15.60;99.90
18753;DHT22;9505;50.882;5.350;2022-11-03T11:47:39;15.70;99.90
18753;DHT22;9505;50.882;5.350;2022-11-03T11:52:46;15.70;99.90
18753;DHT22;9505;50.882;5.350;2022-11-03T11:57:58;15.60;99.90
18753;DHT22;9505;50.882;5.350;2022-11-03T12:00:33;15.50;99.90
18753;DHT22;9505;50.882;5.350;2022-11-03T12:03:00;15.60;99.90
18753;DHT22;9505;50.882;5.350;2022-11-03T12:05:31;15.50;99.90
18753;DHT22;9505;50.882;5.350;2022-11-03T12:07:58;15.50;99.90
18753;DHT22;9505;50.882;5.350;2022-11-03T12:10:26;15.60;99.90
18753;DHT22;9505;50.882;5.350;2022-11-03T12:12:53;15.60;99.90
18753;DHT22;9505;50.882;5.350;2022-11-03T12:18:34;15.50;99.90
18753;DHT22;9505;50.882;5.350;2022-11-03T12:21:07;15.50;99.90
18753;DHT22;9505;50.882;5.350;2022-11-03T12:23:35;15.50;99.90
18753;DHT22;9505;50.882;5.350;2022-11-03T12:26:04;15.60;99.90
18753;DHT22;9505;50.882;5.350;2022-11-03T12:28:34;15.80;99.90
18753;DHT22;9505;50.882;5.350;2022-11-03T12:31:00;15.80;99.90
18753;DHT22;9505;50.882;5.350;2022-11-03T12:33:27;15.80;99.90
18753;DHT22;9505;50.882;5.350;2022-11-03T12:35:54;15.80;99.90
18753;DHT22;9505;50.882;5.350;2022-11-03T12:38:19;15.90;99.90
18753;DHT22;9505;50.882;5.350;2022-11-03T12:40:45;15.90;99.90
18753;DHT22;9505;50.882;5.350;2022-11-03T12:43:10;15.90;99.90
18753;DHT22;9505;50.882;5.350;2022-11-03T12:45:36;15.90;99.90
18753;DHT22;9505;50.882;5.350;2022-11-03T12:48:02;15.90;99.90
18753;DHT22;9505;50.882;5.350;2022-11-03T12:50:27;16.00;99.90
18753;DHT22;9505;50.882;5.350;2022-11-03T12:52:53;16.10;99.90
18753;DHT22;9505;50.882;5.350;2022-11-03T12:55:18;16.00;99.90
18753;DHT22;9505;50.882;5.350;2022-11-03T12:57:44;15.90;99.90
18753;DHT22;9505;50.882;5.350;2022-11-03T13:00:11;15.80;99.90
18753;DHT22;9505;50.882;5.350;2022-11-03T13:02:37;15.80;99.90
18753;DHT22;9505;50.882;5.350;2022-11-03T13:05:04;15.70;99.90
18753;DHT22;9505;50.882;5.350;2022-11-03T13:07:30;15.80;99.90
18753;DHT22;9505;50.882;5.350;2022-11-03T13:09:55;15.70;99.90
18753;DHT22;9505;50.882;5.350;2022-11-03T13:12:21;15.70;99.90
18753;DHT22;9505;50.882;5.350;2022-11-03T13:14:57;15.70;99.90
18753;DHT22;9505;50.882;5.350;2022-11-03T13:17:23;15.60;99.90
18753;DHT22;9505;50.882;5.350;2022-11-03T13:19:49;15.40;99.90
18753;DHT22;9505;50.882;5.350;2022-11-03T13:22:14;15.30;99.90
18753;DHT22;9505;50.882;5.350;2022-11-03T13:24:40;15.20;99.90
18753;DHT22;9505;50.882;5.350;2022-11-03T13:27:05;15.30;99.90
18753;DHT22;9505;50.882;5.350;2022-11-03T13:29:31;15.30;99.90
18753;DHT22;9505;50.882;5.350;2022-11-03T13:31:57;15.30;99.90
18753;DHT22;9505;50.882;5.350;2022-11-03T13:34:22;15.30;99.90
18753;DHT22;9505;50.882;5.350;2022-11-03T13:36:48;15.20;99.90
18753;DHT22;9505;50.882;5.350;2022-11-03T13:39:13;15.10;99.90
18753;DHT22;9505;50.882;5.350;2022-11-03T13:41:39;15.10;99.90
18753;DHT22;9505;50.882;5.350;2022-11-03T13:44:05;15.00;99.90
18753;DHT22;9505;50.882;5.350;2022-11-03T13:46:30;14.90;99.90
18753;DHT22;9505;50.882;5.350;2022-11-03T13:48:56;14.80;99.90
18753;DHT22;9505;50.882;5.350;2022-11-03T13:51:21;14.70;99.90
18753;DHT22;9505;50.882;5.350;2022-11-03T13:53:47;14.40;99.90
18753;DHT22;9505;50.882;5.350;2022-11-03T13:56:12;14.30;99.90
18753;DHT22;9505;50.882;5.350;2022-11-03T13:58:38;14.00;99.90
18753;DHT22;9505;50.882;5.350;2022-11-03T14:01:04;13.80;99.90
18753;DHT22;9505;50.882;5.350;2022-11-03T14:03:29;13.70;99.90
18753;DHT22;9505;50.882;5.350;2022-11-03T14:05:55;13.60;99.90
18753;DHT22;9505;50.882;5.350;2022-11-03T14:08:20;13.50;99.90
18753;DHT22;9505;50.882;5.350;2022-11-03T14:10:46;13.40;99.90
18753;DHT22;9505;50.882;5.350;2022-11-03T14:13:12;13.30;99.90
18753;DHT22;9505;50.882;5.350;2022-11-03T14:15:37;13.10;99.90
18753;DHT22;9505;50.882;5.350;2022-11-03T14:18:03;13.00;99.90
18753;DHT22;9505;50.882;5.350;2022-11-03T14:20:28;13.00;99.90
18753;DHT22;9505;50.882;5.350;2022-11-03T14:22:54;13.00;99.90
18753;DHT22;9505;50.882;5.350;2022-11-03T14:25:20;13.10;99.90
18753;DHT22;9505;50.882;5.350;2022-11-03T14:27:46;13.10;99.90
18753;DHT22;9505;50.882;5.350;2022-11-03T14:30:12;13.20;99.90
18753;DHT22;9505;50.882;5.350;2022-11-03T14:32:38;13.20;99.90
18753;DHT22;9505;50.882;5.350;2022-11-03T14:35:04;13.30;99.90
18753;DHT22;9505;50.882;5.350;2022-11-03T14:37:30;13.20;99.90
18753;DHT22;9505;50.882;5.350;2022-11-03T14:39:55;13.30;99.90
18753;DHT22;9505;50.882;5.350;2022-11-03T14:42:21;13.30;99.90
18753;DHT22;9505;50.882;5.350;2022-11-03T14:44:47;13.30;99.90
18753;DHT22;9505;50.882;5.350;2022-11-03T14:47:17;13.30;99.90
18753;DHT22;9505;50.882;5.350;2022-11-03T14:49:43;13.40;99.90
18753;DHT22;9505;50.882;5.350;2022-11-03T14:52:10;13.40;99.90
18753;DHT22;9505;50.882;5.350;2022-11-03T14:54:36;13.30;99.90
18753;DHT22;9505;50.882;5.350;2022-11-03T14:57:03;13.30;99.90
18753;DHT22;9505;50.882;5.350;2022-11-03T14:59:28;13.30;99.90
18753;DHT22;9505;50.882;5.350;2022-11-03T15:01:55;13.30;99.90
18753;DHT22;9505;50.882;5.350;2022-11-03T15:04:21;13.30;99.90
18753;DHT22;9505;50.882;5.350;2022-11-03T15:06:47;13.30;99.90
18753;DHT22;9505;50.882;5.350;2022-11-03T15:09:13;13.20;99.90
18753;DHT22;9505;50.882;5.350;2022-11-03T15:11:42;13.20;99.90
18753;DHT22;9505;50.882;5.350;2022-11-03T15:14:08;13.20;99.90
18753;DHT22;9505;50.882;5.350;2022-11-03T15:16:35;13.20;99.90
18753;DHT22;9505;50.882;5.350;2022-11-03T15:19:03;13.20;99.90
18753;DHT22;9505;50.882;5.350;2022-11-03T15:21:29;13.20;99.90
18753;DHT22;9505;50.882;5.350;2022-11-03T15:23:54;13.10;99.90
18753;DHT22;9505;50.882;5.350;2022-11-03T15:26:20;13.10;99.90
18753;DHT22;9505;50.882;5.350;2022-11-03T15:28:46;13.10;99.90
18753;DHT22;9505;50.882;5.350;2022-11-03T15:31:11;13.10;99.90
18753;DHT22;9505;50.882;5.350;2022-11-03T15:33:37;13.00;99.90
18753;DHT22;9505;50.882;5.350;2022-11-03T15:36:04;12.90;99.90
18753;DHT22;9505;50.882;5.350;2022-11-03T15:38:31;12.80;99.90
18753;DHT22;9505;50.882;5.350;2022-11-03T15:40:56;12.70;99.90
18753;DHT22;9505;50.882;5.350;2022-11-03T15:43:43;12.70;99.90
18753;DHT22;9505;50.882;5.350;2022-11-03T15:46:09;12.60;99.90
18753;DHT22;9505;50.882;5.350;2022-11-03T15:48:36;12.70;99.90
18753;DHT22;9505;50.882;5.350;2022-11-03T15:51:01;12.70;99.90
18753;DHT22;9505;50.882;5.350;2022-11-03T15:53:27;12.70;99.90
18753;DHT22;9505;50.882;5.350;2022-11-03T15:55:53;12.70;99.90
18753;DHT22;9505;50.882;5.350;2022-11-03T15:58:18;12.70;99.90
18753;DHT22;9505;50.882;5.350;2022-11-03T16:00:44;12.80;99.90
18753;DHT22;9505;50.882;5.350;2022-11-03T16:03:09;12.70;99.90
18753;DHT22;9505;50.882;5.350;2022-11-03T16:05:35;12.70;99.90
18753;DHT22;9505;50.882;5.350;2022-11-03T16:08:00;12.70;99.90
18753;DHT22;9505;50.882;5.350;2022-11-03T16:10:26;12.70;99.90
18753;DHT22;9505;50.882;5.350;2022-11-03T16:12:51;12.70;99.90
18753;DHT22;9505;50.882;5.350;2022-11-03T16:15:17;12.60;99.90
18753;DHT22;9505;50.882;5.350;2022-11-03T16:17:43;12.50;99.90
18753;DHT22;9505;50.882;5.350;2022-11-03T16:20:09;12.50;99.90
18753;DHT22;9505;50.882;5.350;2022-11-03T16:22:35;12.50;99.90
18753;DHT22;9505;50.882;5.350;2022-11-03T16:25:01;12.40;99.90
18753;DHT22;9505;50.882;5.350;2022-11-03T16:27:27;12.40;99.90
18753;DHT22;9505;50.882;5.350;2022-11-03T16:29:52;12.40;99.90
18753;DHT22;9505;50.882;5.350;2022-11-03T16:32:20;12.30;99.90
18753;DHT22;9505;50.882;5.350;2022-11-03T16:34:46;12.30;99.90
18753;DHT22;9505;50.882;5.350;2022-11-03T16:37:13;12.30;99.90
18753;DHT22;9505;50.882;5.350;2022-11-03T16:39:39;12.30;99.90
18753;DHT22;9505;50.882;5.350;2022-11-03T16:42:05;12.40;99.90
18753;DHT22;9505;50.882;5.350;2022-11-03T16:44:31;12.30;99.90
18753;DHT22;9505;50.882;5.350;2022-11-03T16:46:56;12.40;99.90
18753;DHT22;9505;50.882;5.350;2022-11-03T16:49:22;12.30;99.90
18753;DHT22;9505;50.882;5.350;2022-11-03T16:51:48;12.30;99.90
18753;DHT22;9505;50.882;5.350;2022-11-03T16:54:13;12.30;99.90
18753;DHT22;9505;50.882;5.350;2022-11-03T16:56:40;12.20;99.90
18753;DHT22;9505;50.882;5.350;2022-11-03T16:59:06;12.20;99.90
18753;DHT22;9505;50.882;5.350;2022-11-03T17:01:32;12.20;99.90
18753;DHT22;9505;50.882;5.350;2022-11-03T17:03:58;12.20;99.90
18753;DHT22;9505;50.882;5.350;2022-11-03T17:06:23;12.20;99.90